Time;durP1;ratioP1;P1;durP2;ratioP2;P2;SDS_P1;SDS_P2;PMS_P1;PMS_P2;Temp;Humidity;BMP_temperature;BMP_pressure;BME280_temperature;BME280_humidity;BME280_pressure;Samples;Min_cycle;Max_cycle;Signal;HPM_P1;HPM_P2
2022/05/07 00:02:13;;;;;;;24.60;19.30;;;;;;;11.28;79.15;97746.13;1658305;86;27476;-77
2022/05/07 00:04:39;;;;;;;23.52;18.90;;;;;;;11.31;79.13;97744.89;1658327;86;25255;-76
2022/05/07 00:07:07;;;;;;;21.00;18.37;;;;;;;11.31;79.07;97741.67;1658432;86;25776;-76
2022/05/07 00:09:35;;;;;;;24.30;18.23;;;;;;;11.31;79.02;97744.89;1658508;86;26140;-76
2022/05/07 00:12:02;;;;;;;23.80;18.45;;;;;;;11.29;78.97;97742.91;1658260;86;25970;-76
2022/05/07 00:14:29;;;;;;;22.93;18.30;;;;;;;11.27;78.89;97743.64;1658221;86;27431;-76
2022/05/07 00:19:41;;;;;;;22.00;18.15;;;;;;;11.22;78.89;97742.09;1658386;86;25799;-76
2022/05/07 00:22:08;;;;;;;23.02;18.48;;;;;;;11.15;78.82;97742.07;1658427;86;26000;-76
2022/05/07 00:24:34;;;;;;;21.75;18.42;;;;;;;11.11;78.85;97741.64;1658539;86;25240;-76
2022/05/07 00:27:01;;;;;;;20.97;17.57;;;;;;;11.09;78.85;97746.45;1658539;86;28513;-76
2022/05/07 00:29:27;;;;;;;21.30;17.30;;;;;;;11.03;78.78;97743.20;1651631;86;25759;-75
2022/05/07 00:31:54;;;;;;;20.32;17.67;;;;;;;11.00;78.86;97740.07;1650656;86;25696;-76
2022/05/07 00:34:21;;;;;;;22.62;16.95;;;;;;;10.98;78.85;97748.41;1648281;87;26793;-76
2022/05/07 00:36:48;;;;;;;23.02;17.45;;;;;;;10.96;78.85;97745.08;1648505;87;25813;-76
2022/05/07 00:39:14;;;;;;;19.85;17.05;;;;;;;10.94;78.75;97745.80;1648155;87;27440;-76
2022/05/07 00:41:41;;;;;;;19.55;16.45;;;;;;;10.91;78.70;97742.66;1648183;87;25773;-76
2022/05/07 00:44:07;;;;;;;21.93;16.45;;;;;;;10.90;78.71;97742.34;1648480;87;25686;-76
2022/05/07 00:46:35;;;;;;;19.90;16.25;;;;;;;10.85;78.62;97738.93;1648391;86;26026;-76
2022/05/07 00:49:01;;;;;;;25.15;18.00;;;;;;;10.78;78.51;97739.41;1648251;87;25658;-76
2022/05/07 00:51:34;;;;;;;21.80;17.65;;;;;;;10.72;78.57;97734.84;1650376;86;27437;-76
2022/05/07 00:54:06;;;;;;;;;;;;;;;10.64;78.75;97732.31;1650690;87;25754;-76
2022/05/07 00:56:33;;;;;;;22.05;16.90;;;;;;;10.63;78.88;97727.95;1649886;86;25789;-76
2022/05/07 00:59:00;;;;;;;21.23;16.30;;;;;;;10.60;78.92;97727.03;1648689;87;26117;-75
2022/05/07 01:01:27;;;;;;;21.68;16.77;;;;;;;10.59;78.89;97727.55;1650656;86;25797;-75
2022/05/07 01:03:54;;;;;;;19.75;16.17;;;;;;;10.58;78.94;97721.83;1648141;87;27479;-77
2022/05/07 01:06:21;;;;;;;21.50;14.85;;;;;;;10.60;79.03;97718.41;1650196;85;26545;-75
2022/05/07 01:08:50;;;;;;;19.05;15.10;;;;;;;10.62;79.08;97719.05;1648471;87;25781;-75
2022/05/07 01:11:18;;;;;;;18.80;15.10;;;;;;;10.62;79.12;97718.22;1648718;87;26249;-76
2022/05/07 01:13:47;;;;;;;20.17;15.43;;;;;;;10.65;79.06;97720.48;1650463;86;25774;-75
2022/05/07 01:16:14;;;;;;;20.02;15.68;;;;;;;10.65;79.08;97723.19;1648488;87;27451;-76
2022/05/07 01:18:42;;;;;;;19.40;16.17;;;;;;;10.62;79.05;97720.91;1650474;86;25481;-75
2022/05/07 01:21:14;;;;;;;18.67;16.02;;;;;;;10.56;79.16;97723.90;1648548;87;25714;-76
2022/05/07 01:23:43;;;;;;;20.77;17.45;;;;;;;10.58;79.32;97725.05;1592401;89;26070;-76
2022/05/07 01:26:10;;;;;;;19.23;16.73;;;;;;;10.60;79.38;97724.33;1592195;89;25508;-76
2022/05/07 01:28:38;;;;;;;23.70;16.32;;;;;;;10.59;79.45;97724.02;1591893;88;28273;-76
2022/05/07 01:31:06;;;;;;;19.00;16.90;;;;;;;10.62;79.50;97727.66;1591817;90;25783;-76
2022/05/07 01:33:34;;;;;;;21.55;17.70;;;;;;;10.60;79.52;97728.38;1592279;90;25905;-75
2022/05/07 01:36:02;;;;;;;18.20;16.12;;;;;;;10.58;79.60;97729.93;1592089;90;26014;-76
2022/05/07 01:38:31;;;;;;;22.05;18.20;;;;;;;10.60;79.71;97731.08;1592337;90;25828;-76
2022/05/07 01:40:59;;;;;;;21.20;18.73;;;;;;;10.58;79.72;97729.09;1592062;90;27400;-76
2022/05/07 01:43:27;;;;;;;26.15;20.82;;;;;;;10.52;79.82;97720.45;1592154;90;25809;-76
2022/05/07 01:45:56;;;;;;;25.20;21.15;;;;;;;10.57;79.94;97717.98;1592095;90;25552;-76
2022/05/07 01:48:23;;;;;;;23.98;20.20;;;;;;;10.60;80.01;97723.81;1592324;88;26559;-77
2022/05/07 01:50:49;;;;;;;28.07;22.37;;;;;;;10.59;80.01;97724.84;1591959;90;25810;-76
2022/05/07 01:53:16;;;;;;;30.75;24.63;;;;;;;10.58;80.04;97719.65;1592306;90;27619;-76
2022/05/07 01:55:46;;;;;;;32.83;22.35;;;;;;;10.60;80.11;97720.28;1592142;90;25736;-76
2022/05/07 01:58:13;;;;;;;26.93;21.68;;;;;;;10.63;80.13;97723.38;1592267;90;25368;-76
2022/05/07 02:00:42;;;;;;;27.52;23.02;;;;;;;10.65;80.13;97719.97;1592109;88;26234;-77
2022/05/07 02:03:10;;;;;;;26.82;22.37;;;;;;;10.68;80.16;97720.08;1592215;90;25560;-75
2022/05/07 02:05:36;;;;;;;30.02;22.80;;;;;;;10.70;80.16;97724.77;1591942;90;27559;-76
2022/05/07 02:08:04;;;;;;;29.70;22.62;;;;;;;10.72;80.16;97722.70;1592088;90;26523;-76
2022/05/07 02:10:30;;;;;;;27.75;22.80;;;;;;;10.70;80.23;97724.25;1592280;90;25714;-76
2022/05/07 02:12:57;;;;;;;27.32;23.15;;;;;;;10.71;80.29;97725.08;1592120;90;26967;-77
2022/05/07 02:15:24;;;;;;;28.92;23.75;;;;;;;10.74;80.29;97721.47;1592025;90;26011;-77
2022/05/07 02:17:50;;;;;;;24.52;20.10;;;;;;;10.78;80.24;97728.09;1592192;90;27781;-76
2022/05/07 02:20:17;;;;;;;27.32;21.07;;;;;;;10.79;80.20;97724.88;1602538;88;25496;-76
2022/05/07 02:22:44;;;;;;;26.02;20.23;;;;;;;10.79;80.17;97729.77;1619195;88;25867;-75
2022/05/07 02:25:11;;;;;;;24.20;20.12;;;;;;;10.79;80.20;97728.94;1619218;88;25841;-76
2022/05/07 02:27:37;;;;;;;27.27;20.00;;;;;;;10.79;80.21;97728.94;1664489;85;25746;-76
2022/05/07 02:30:05;;;;;;;21.25;18.52;;;;;;;10.80;80.22;97727.89;1676413;85;27370;-76
2022/05/07 02:32:32;;;;;;;23.15;18.90;;;;;;;10.80;80.20;97731.44;1676317;85;25847;-76
2022/05/07 02:34:58;;;;;;;21.75;18.70;;;;;;;10.79;80.22;97732.47;1676082;85;25690;-74
2022/05/07 02:37:25;;;;;;;24.70;18.30;;;;;;;10.79;80.22;97732.47;1676285;85;26749;-76
2022/05/07 02:39:53;;;;;;;23.30;19.98;;;;;;;10.79;80.29;97729.77;1676335;85;25643;-75
2022/05/07 02:42:39;;;;;;;23.90;19.50;;;;;;;10.77;80.37;97730.48;1676265;85;27395;-76
2022/05/07 02:45:12;;;;;;;28.17;20.70;;;;;;;10.77;80.44;97728.30;1676069;85;25694;-77
2022/05/07 02:47:41;;;;;;;27.13;20.77;;;;;;;10.79;80.47;97736.52;1676458;85;25740;-76
2022/05/07 02:50:09;;;;;;;26.48;21.73;;;;;;;10.81;80.47;97734.45;1676237;85;25933;-76
2022/05/07 02:52:38;;;;;;;25.10;21.55;;;;;;;10.82;80.48;97732.58;1676065;85;25758;-78
2022/05/07 02:55:07;;;;;;;25.97;22.22;;;;;;;10.82;80.53;97734.77;1676121;85;26965;-77
2022/05/07 02:57:34;;;;;;;24.75;21.52;;;;;;;10.82;80.51;97733.41;1676039;85;25711;-76
2022/05/07 03:00:01;;;;;;;24.92;21.48;;;;;;;10.82;80.54;97736.11;1675836;85;25722;-77
2022/05/07 03:02:27;;;;;;;25.55;22.07;;;;;;;10.83;80.57;97736.43;1676276;85;25989;-76
2022/05/07 03:04:54;;;;;;;26.48;21.27;;;;;;;10.83;80.61;97736.95;1676187;85;25714;-75
2022/05/07 03:07:20;;;;;;;23.85;19.98;;;;;;;10.85;80.67;97736.23;1676199;85;28208;-76
2022/05/07 03:09:47;;;;;;;27.45;20.37;;;;;;;10.84;80.69;97733.22;1676019;85;25825;-76
2022/05/07 03:12:14;;;;;;;25.88;20.90;;;;;;;10.86;80.64;97729.80;1676205;84;25738;-75
2022/05/07 03:14:41;;;;;;;30.37;21.82;;;;;;;10.87;80.61;97730.63;1676144;85;26770;-76
2022/05/07 03:17:07;;;;;;;28.55;21.52;;;;;;;10.87;80.62;97730.63;1676308;85;25759;-76
2022/05/07 03:19:34;;;;;;;28.70;21.02;;;;;;;10.87;80.64;97728.73;1676291;85;27372;-76
2022/05/07 03:22:00;;;;;;;25.57;20.60;;;;;;;10.85;80.61;97726.78;1676069;85;25461;-76
2022/05/07 03:24:27;;;;;;;25.17;21.02;;;;;;;10.83;80.67;97731.55;1676156;85;25770;-76
2022/05/07 03:26:56;;;;;;;23.77;20.30;;;;;;;10.82;80.68;97727.18;1676203;85;25999;-75
2022/05/07 03:29:23;;;;;;;28.05;21.20;;;;;;;10.82;80.70;97732.06;1679382;85;25493;-75
2022/05/07 03:31:50;;;;;;;26.65;20.60;;;;;;;10.84;80.72;97730.52;1684558;85;27407;-76
2022/05/07 03:34:16;;;;;;;24.45;19.25;;;;;;;10.85;80.71;97733.53;1686389;85;25706;-76
2022/05/07 03:36:43;;;;;;;25.12;20.05;;;;;;;10.87;80.68;97731.43;1686629;85;25730;-76
2022/05/07 03:39:11;;;;;;;23.00;19.45;;;;;;;10.87;80.63;97732.78;1655565;86;26043;-76
2022/05/07 03:41:38;;;;;;;22.22;18.62;;;;;;;10.85;80.61;97731.34;1655532;86;26053;-76
2022/05/07 03:44:05;;;;;;;22.40;19.15;;;;;;;10.85;80.65;97733.53;1684312;83;27450;-75
2022/05/07 03:46:31;;;;;;;26.10;19.55;;;;;;;10.85;80.69;97738.09;1686497;85;25710;-75
2022/05/07 03:48:58;;;;;;;23.05;19.60;;;;;;;10.86;80.75;97737.89;1686653;85;25914;-76
2022/05/07 03:51:25;;;;;;;25.82;19.52;;;;;;;10.87;80.78;97740.88;1686566;84;25987;-76
2022/05/07 03:53:51;;;;;;;26.68;20.65;;;;;;;10.82;80.74;97740.68;1655515;86;25254;-75
2022/05/07 03:56:18;;;;;;;26.57;20.48;;;;;;;10.78;80.78;97741.60;1684311;85;28345;-77
2022/05/07 03:58:44;;;;;;;27.77;21.37;;;;;;;10.79;80.86;97741.08;1686647;85;25670;-75
2022/05/07 04:01:11;;;;;;;26.17;20.70;;;;;;;10.82;80.94;97748.78;1686512;85;25783;-75
2022/05/07 04:03:37;;;;;;;26.82;21.33;;;;;;;10.83;80.98;97743.70;1655608;86;25929;-76
2022/05/07 04:06:04;;;;;;;28.20;21.55;;;;;;;10.86;80.99;97739.77;1684145;85;25750;-76
2022/05/07 04:08:30;;;;;;;26.00;21.05;;;;;;;10.88;81.00;97745.77;1686524;85;27618;-76
2022/05/07 04:10:57;;;;;;;26.12;21.73;;;;;;;10.88;80.99;97742.55;1686501;85;25425;-76
2022/05/07 04:13:24;;;;;;;26.55;21.35;;;;;;;10.89;80.95;97745.56;1655637;86;25701;-76
2022/05/07 04:15:50;;;;;;;25.32;20.85;;;;;;;10.92;80.97;97751.91;1684268;85;26004;-76
2022/05/07 04:18:17;;;;;;;34.45;22.32;;;;;;;10.94;80.96;97748.49;1686491;85;25320;-76
2022/05/07 04:20:43;;;;;;;24.52;21.45;;;;;;;10.96;80.93;97750.48;1686110;85;27594;-76
2022/05/07 04:23:10;;;;;;;25.23;21.73;;;;;;;10.96;80.95;97746.94;1655614;85;25755;-75
2022/05/07 04:25:38;;;;;;;23.85;20.52;;;;;;;10.96;80.95;97750.48;1684107;85;25821;-76
2022/05/07 04:28:05;;;;;;;26.80;21.25;;;;;;;10.97;80.95;97742.69;1686532;85;25925;-76
2022/05/07 04:30:31;;;;;;;24.50;20.57;;;;;;;10.98;80.92;97744.87;1680676;85;25714;-76
2022/05/07 04:32:58;;;;;;;27.62;21.23;;;;;;;10.97;80.92;97736.45;1678370;85;27390;-76
2022/05/07 04:35:24;;;;;;;24.92;21.05;;;;;;;10.98;80.89;97734.07;1677938;85;25766;-76
2022/05/07 04:37:51;;;;;;;25.65;20.90;;;;;;;10.97;80.90;97739.99;1678468;85;25778;-77
2022/05/07 04:40:18;;;;;;;23.62;20.23;;;;;;;10.98;80.90;97736.77;1678465;85;26752;-76
2022/05/07 04:42:44;;;;;;;27.50;21.52;;;;;;;10.98;80.91;97732.20;1678560;85;25725;-76
2022/05/07 04:45:11;;;;;;;33.30;23.83;;;;;;;10.99;80.96;97733.84;1678280;84;27518;-76
2022/05/07 04:47:38;;;;;;;30.82;25.37;;;;;;;11.02;80.97;97735.30;1678473;84;25766;-75
2022/05/07 04:50:05;;;;;;;26.30;20.65;;;;;;;11.02;80.96;97738.84;1678396;85;25294;-76
2022/05/07 04:52:32;;;;;;;25.97;20.37;;;;;;;10.98;80.94;97729.50;1678201;85;25982;-76
2022/05/07 04:55:02;;;;;;;25.10;20.92;;;;;;;10.96;80.98;97730.73;1678754;85;25719;-76
2022/05/07 04:57:28;;;;;;;25.12;21.62;;;;;;;10.97;81.05;97731.89;1678560;85;27408;-76
2022/05/07 04:59:55;;;;;;;25.20;20.27;;;;;;;11.00;81.09;97738.20;1678334;85;25676;-77
2022/05/07 05:02:21;;;;;;;23.62;20.55;;;;;;;11.03;81.07;97747.25;1678322;85;25220;-75
2022/05/07 05:04:48;;;;;;;25.00;20.32;;;;;;;11.08;81.05;97746.13;1678462;85;26115;-76
2022/05/07 05:07:14;;;;;;;25.45;20.80;;;;;;;11.12;81.01;97752.77;1678476;84;26382;-76
2022/05/07 05:09:41;;;;;;;23.15;20.60;;;;;;;11.16;80.96;97756.73;1678126;85;26928;-76
2022/05/07 05:12:10;;;;;;;29.50;21.57;;;;;;;11.15;80.99;97752.36;1678477;85;25750;-76
2022/05/07 05:17:21;;;;;;;25.80;21.93;;;;;;;11.13;81.24;97759.84;1678401;85;26054;-76
2022/05/07 05:19:48;;;;;;;26.52;22.50;;;;;;;11.16;81.40;97753.19;1678529;85;25466;-76
2022/05/07 05:22:14;;;;;;;24.25;21.65;;;;;;;11.20;81.44;97758.51;1678725;85;27535;-77
2022/05/07 05:24:41;;;;;;;25.65;22.60;;;;;;;11.24;81.42;97760.25;1678572;85;25750;-76
2022/05/07 05:27:07;;;;;;;25.68;21.35;;;;;;;11.28;81.42;97758.81;1678551;84;25837;-76
2022/05/07 05:29:34;;;;;;;24.67;21.42;;;;;;;11.33;81.48;97760.39;1679505;84;26922;-76
2022/05/07 05:32:01;;;;;;;25.80;21.82;;;;;;;11.34;81.45;97762.05;1683338;85;25915;-77
2022/05/07 05:34:28;;;;;;;26.80;21.48;;;;;;;11.40;81.58;97765.27;1682869;85;27507;-76
2022/05/07 05:36:54;;;;;;;26.90;21.87;;;;;;;11.45;81.53;97768.19;1683052;85;25790;-76
2022/05/07 05:39:21;;;;;;;24.40;21.60;;;;;;;11.51;81.47;97766.81;1683321;85;25783;-77
2022/05/07 05:41:47;;;;;;;27.10;22.02;;;;;;;11.57;81.34;97766.52;1682985;84;26669;-75
2022/05/07 05:44:14;;;;;;;25.82;22.65;;;;;;;11.65;81.26;97770.88;1683307;85;25714;-76
2022/05/07 05:46:40;;;;;;;24.55;21.65;;;;;;;11.70;81.17;97767.87;1683152;85;28097;-76
2022/05/07 05:49:07;;;;;;;27.98;22.77;;;;;;;11.77;81.15;97768.70;1682980;85;25869;-77
2022/05/07 05:51:34;;;;;;;28.60;22.60;;;;;;;11.83;81.12;97771.91;1683246;85;25809;-76
2022/05/07 05:54:00;;;;;;;25.23;22.22;;;;;;;11.92;81.08;97772.55;1682861;85;26634;-76
2022/05/07 05:56:27;;;;;;;26.73;23.52;;;;;;;12.02;81.03;97779.70;1683131;85;25817;-75
2022/05/07 05:58:55;;;;;;;25.92;22.75;;;;;;;12.11;81.00;97774.36;1683161;85;28193;-76
2022/05/07 06:01:22;;;;;;;27.52;21.90;;;;;;;12.19;80.84;97772.80;1683113;85;25746;-76
2022/05/07 06:03:48;;;;;;;28.67;23.52;;;;;;;12.22;80.67;97771.00;1683368;85;25754;-75
2022/05/07 06:06:15;;;;;;;25.55;22.35;;;;;;;12.27;80.67;97770.38;1683064;84;25974;-76
2022/05/07 06:08:42;;;;;;;24.98;21.70;;;;;;;12.35;80.60;97770.13;1683293;85;26751;-76
2022/05/07 06:11:09;;;;;;;24.82;20.77;;;;;;;12.39;80.41;97775.95;1683126;85;27466;-76
2022/05/07 06:13:36;;;;;;;24.95;22.35;;;;;;;12.41;80.36;97770.64;1683081;85;25249;-76
2022/05/07 06:16:02;;;;;;;23.87;21.02;;;;;;;12.51;80.36;97774.23;1682962;85;25725;-77
2022/05/07 06:18:29;;;;;;;25.30;22.07;;;;;;;12.59;80.17;97772.11;1683163;85;25989;-76
2022/05/07 06:20:56;;;;;;;24.47;21.95;;;;;;;12.59;79.95;97772.11;1683042;85;25252;-76
2022/05/07 06:23:22;;;;;;;23.83;21.15;;;;;;;12.68;80.03;97771.89;1683011;85;27368;-76
2022/05/07 06:28:34;;;;;;;22.62;20.23;;;;;;;12.84;79.79;97771.36;1683066;85;25778;-77
2022/05/07 06:31:00;;;;;;;24.02;20.75;;;;;;;12.95;79.73;97768.80;1679809;84;26145;-77
2022/05/07 06:33:28;;;;;;;22.98;20.48;;;;;;;13.07;79.44;97774.35;1678485;85;25975;-76
2022/05/07 06:35:55;;;;;;;25.35;19.50;;;;;;;13.20;79.43;97770.76;1678380;85;27393;-78
2022/05/07 06:38:22;;;;;;;22.50;20.15;;;;;;;13.33;79.10;97767.95;1678335;85;25810;-76
2022/05/07 06:40:50;;;;;;;22.90;19.30;;;;;;;13.45;78.83;97768.07;1678187;85;26483;-77
2022/05/07 06:43:17;;;;;;;23.15;18.75;;;;;;;13.57;78.65;97764.95;1678391;84;26072;-77
2022/05/07 06:45:43;;;;;;;22.10;19.82;;;;;;;13.65;78.18;97766.02;1650096;86;25761;-77
2022/05/07 06:48:11;;;;;;;22.42;19.48;;;;;;;13.76;78.41;97767.20;1650188;86;28028;-77
2022/05/07 06:50:38;;;;;;;20.27;18.17;;;;;;;13.89;78.22;97769.23;1650088;86;26005;-76
2022/05/07 06:53:05;;;;;;;22.07;19.67;;;;;;;14.04;78.21;97764.81;1649846;86;26010;-76
2022/05/07 06:55:33;;;;;;;22.95;20.23;;;;;;;14.16;77.91;97768.45;1650088;86;27449;-77
2022/05/07 06:58:00;;;;;;;23.90;20.05;;;;;;;14.26;77.74;97762.48;1650005;85;25975;-77
2022/05/07 07:00:26;;;;;;;24.23;20.70;;;;;;;14.35;77.49;97767.94;1650285;86;27646;-76
2022/05/07 07:02:53;;;;;;;23.27;20.77;;;;;;;14.41;77.35;97766.53;1650120;86;25750;-76
2022/05/07 07:05:21;;;;;;;23.90;21.35;;;;;;;14.45;77.12;97770.16;1650086;86;25709;-77
2022/05/07 07:07:47;;;;;;;25.12;21.45;;;;;;;14.51;77.22;97768.70;1650096;86;25828;-76
2022/05/07 07:10:14;;;;;;;25.35;22.15;;;;;;;14.66;77.21;97767.79;1650096;86;26338;-77
2022/05/07 07:12:40;;;;;;;24.45;21.65;;;;;;;14.74;76.87;97765.28;1650043;86;27196;-77
2022/05/07 07:15:09;;;;;;;24.77;22.13;;;;;;;14.85;77.06;97765.89;1650121;86;25669;-77
2022/05/07 07:17:36;;;;;;;27.45;23.67;;;;;;;14.97;76.77;97764.58;1621917;86;25724;-77
2022/05/07 07:20:03;;;;;;;25.92;23.02;;;;;;;15.03;76.86;97760.92;1622245;88;25995;-76
2022/05/07 07:22:29;;;;;;;24.40;21.37;;;;;;;15.13;76.89;97762.55;1650107;85;25782;-79
2022/05/07 07:24:56;;;;;;;25.02;22.22;;;;;;;15.26;76.66;97763.71;1622183;87;27367;-77
2022/05/07 07:27:22;;;;;;;27.45;22.13;;;;;;;15.40;76.38;97759.73;1650065;85;26304;-77
2022/05/07 07:29:49;;;;;;;27.30;21.93;;;;;;;15.52;75.94;97760.28;1621679;87;25731;-76
2022/05/07 07:32:16;;;;;;;25.27;20.95;;;;;;;15.63;75.76;97760.86;1643450;85;26709;-79
2022/05/07 07:34:43;;;;;;;23.52;20.37;;;;;;;15.64;74.83;97757.08;1615539;88;25864;-77
2022/05/07 07:37:09;;;;;;;22.73;19.65;;;;;;;15.66;74.87;97756.31;1615381;88;27654;-77
2022/05/07 07:39:36;;;;;;;25.35;18.07;;;;;;;15.80;74.74;97761.84;1615360;88;25497;-78
2022/05/07 07:42:03;;;;;;;23.27;19.27;;;;;;;15.97;74.26;97758.69;1643261;87;25779;-78
2022/05/07 07:44:29;;;;;;;26.57;20.50;;;;;;;16.17;73.92;97755.08;1615497;87;25964;-77
2022/05/07 07:49:42;;;;;;;28.07;20.20;;;;;;;16.63;73.39;97756.62;1626256;87;27514;-77
2022/05/07 07:52:09;;;;;;;25.15;19.77;;;;;;;16.87;73.14;97756.84;1643309;85;25214;-78
2022/05/07 07:54:36;;;;;;;28.07;20.27;;;;;;;17.11;72.23;97757.56;1615125;88;25449;-77
2022/05/07 07:57:02;;;;;;;25.90;21.23;;;;;;;17.29;71.98;97757.34;1643380;85;25982;-76
2022/05/07 07:59:30;;;;;;;22.75;19.25;;;;;;;17.54;72.10;97759.14;1615527;88;25666;-77
2022/05/07 08:01:57;;;;;;;19.12;16.52;;;;;;;17.86;71.75;97761.35;1643240;87;27235;-77
2022/05/07 08:04:25;;;;;;;20.80;17.73;;;;;;;18.04;70.29;97759.70;1615510;88;25227;-78
2022/05/07 08:12:25;;;;;;;19.02;16.10;;;;;;;18.11;69.01;97769.94;1643224;85;25698;-77
2022/05/07 08:14:51;;;;;;;16.02;13.58;;;;;;;18.19;69.01;97758.57;1643236;87;27420;-77
2022/05/07 08:17:18;;;;;;;18.35;14.35;;;;;;;18.33;68.20;97757.14;1615551;88;25813;-77
2022/05/07 08:19:45;;;;;;;18.92;14.40;;;;;;;18.54;67.71;97754.67;1615607;88;25774;-77
2022/05/07 08:22:12;;;;;;;15.50;13.38;;;;;;;18.53;67.40;97759.84;1615765;88;26628;-77
2022/05/07 08:24:38;;;;;;;21.57;13.45;;;;;;;18.62;67.28;97759.71;1615632;88;25288;-77
2022/05/07 08:27:06;;;;;;;15.63;12.82;;;;;;;18.82;66.59;97750.41;1615684;88;27558;-77
2022/05/07 08:29:33;;;;;;;17.00;12.68;;;;;;;19.02;66.12;97755.27;1626564;88;25738;-78
2022/05/07 08:31:59;;;;;;;15.83;11.10;;;;;;;19.11;65.20;97753.73;1626317;87;25714;-77
2022/05/07 08:34:26;;;;;;;13.03;10.53;;;;;;;19.24;64.79;97754.69;1643299;85;26481;-77
2022/05/07 08:36:53;;;;;;;15.90;10.65;;;;;;;19.41;63.88;97747.20;1615440;88;25705;-77
2022/05/07 08:39:20;;;;;;;21.37;11.90;;;;;;;19.69;63.00;97744.72;1615708;88;27378;-77
2022/05/07 08:41:46;;;;;;;16.07;10.70;;;;;;;19.89;62.73;97745.98;1643227;85;25724;-79
2022/05/07 08:44:13;;;;;;;14.00;10.40;;;;;;;20.18;61.98;97748.64;1586952;88;25811;-77
2022/05/07 08:46:41;;;;;;;13.65;10.25;;;;;;;20.32;59.72;97751.73;1615577;88;25969;-77
2022/05/07 08:49:10;;;;;;;13.10;10.10;;;;;;;20.32;59.72;97751.73;1643208;86;26010;-77
2022/05/07 08:51:38;;;;;;;18.82;10.40;;;;;;;20.51;60.43;97752.99;1615582;88;27390;-77
2022/05/07 08:54:05;;;;;;;11.73;7.62;;;;;;;20.56;59.96;97732.44;1626379;87;25796;-77
2022/05/07 08:56:32;;;;;;;10.88;8.68;;;;;;;20.70;59.11;97757.45;1643335;86;25740;-78
2022/05/07 08:58:58;;;;;;;13.25;9.38;;;;;;;20.61;57.92;97743.98;1615618;88;26009;-76
2022/05/07 09:01:25;;;;;;;15.25;9.30;;;;;;;20.57;57.69;97764.80;1626678;88;25780;-77
2022/05/07 09:03:52;;;;;;;10.20;8.03;;;;;;;20.37;57.49;97762.23;1643272;85;28285;-77
2022/05/07 09:06:25;;;;;;;10.80;8.05;;;;;;;20.17;57.33;97758.49;1643090;87;25889;-77
2022/05/07 09:08:55;;;;;;;12.65;10.85;;;;;;;19.98;56.45;97760.84;1643109;86;25828;-77
2022/05/07 09:11:22;;;;;;;12.55;8.98;;;;;;;19.88;56.88;97763.51;1615773;88;26050;-77
2022/05/07 09:14:04;;;;;;;17.67;10.10;;;;;;;19.76;56.43;97762.32;1616106;88;25382;-77
2022/05/07 09:16:49;;;;;;;13.08;8.73;;;;;;;19.60;56.45;97761.36;1616005;86;27245;-77
2022/05/07 09:19:25;;;;;;;13.62;8.65;;;;;;;19.49;57.18;97767.00;1616057;88;26040;-77
2022/05/07 09:21:55;;;;;;;17.50;11.75;;;;;;;19.41;56.27;97767.73;1589114;90;25901;-77
2022/05/07 09:24:22;;;;;;;16.50;12.68;;;;;;;19.28;55.65;97763.22;1588999;88;25995;-76
2022/05/07 09:26:49;;;;;;;19.27;14.47;;;;;;;19.08;56.41;97764.64;1589074;90;25551;-76
2022/05/07 09:29:15;;;;;;;15.43;12.15;;;;;;;19.05;56.75;97761.61;1589012;90;27374;-77
2022/05/07 09:31:44;;;;;;;15.28;11.63;;;;;;;18.98;56.82;97765.89;1588699;89;25825;-76
2022/05/07 09:37:03;;;;;;;21.10;14.53;;;;;;;18.72;56.55;97769.97;1505278;94;26041;-77
2022/05/07 09:39:34;;;;;;;19.57;15.08;;;;;;;18.49;57.36;97765.52;1537156;93;25862;-77
2022/05/07 09:42:02;;;;;;;18.82;15.28;;;;;;;18.49;57.46;97764.16;1536275;93;27430;-76
2022/05/07 09:44:29;;;;;;;19.07;14.87;;;;;;;18.47;57.69;97767.70;1539624;93;25809;-76
2022/05/07 09:46:57;;;;;;;23.92;15.78;;;;;;;18.47;57.79;97764.97;1539705;93;25841;-76
2022/05/07 09:49:28;;;;;;;21.73;16.45;;;;;;;18.48;58.14;97759.77;1536025;93;26319;-77
2022/05/07 09:51:55;;;;;;;21.70;16.30;;;;;;;18.42;58.18;97765.72;1539835;93;25513;-77
2022/05/07 10:00:01;;;;;;;19.07;14.95;;;;;;;18.09;58.57;97757.06;1532717;93;25883;-77
2022/05/07 10:02:36;;;;;;;;;;;;;;;18.03;59.49;97751.22;1533199;93;26056;-77
2022/05/07 10:05:42;;;;;;;18.45;13.53;;;;;;;18.10;59.37;97753.80;1538130;93;25742;-77
2022/05/07 10:08:25;;;;;;;18.60;13.68;;;;;;;18.13;59.10;97751.91;1548959;91;27476;-78
2022/05/07 10:10:54;;;;;;;21.23;13.83;;;;;;;18.24;59.25;97754.52;1538087;93;25775;-77
2022/05/07 10:13:20;;;;;;;19.80;13.60;;;;;;;18.35;59.22;97750.85;1518653;93;25854;-77
2022/05/07 10:16:03;;;;;;;22.87;15.23;;;;;;;18.44;59.02;97744.97;1537650;93;26211;-77
2022/05/07 10:18:38;;;;;;;;;;;;;;;18.48;58.50;97741.45;1538413;92;25843;-77
2022/05/07 10:21:14;;;;;;;20.95;14.78;;;;;;;18.56;58.14;97744.31;1590953;90;27478;-78
2022/05/07 10:23:55;;;;;;;19.95;15.35;;;;;;;18.63;58.95;97741.69;1594695;89;25722;-78
2022/05/07 10:26:41;;;;;;;22.25;14.93;;;;;;;18.78;58.48;97736.95;1592824;90;25830;-77
2022/05/07 10:29:30;;;;;;;20.48;14.80;;;;;;;18.92;58.39;97743.69;1592261;90;26007;-78
2022/05/07 10:32:05;;;;;;;25.68;16.02;;;;;;;18.98;57.87;97734.44;1594676;88;25919;-77
2022/05/07 10:34:31;;;;;;;20.45;16.25;;;;;;;19.03;58.19;97737.78;1569963;91;27465;-77
2022/05/07 10:37:06;;;;;;;20.90;14.80;;;;;;;19.08;58.14;97737.02;1570094;91;25813;-78
2022/05/07 10:39:34;;;;;;;20.55;15.38;;;;;;;19.09;57.98;97736.73;1570083;91;25847;-76
2022/05/07 10:42:02;;;;;;;17.92;14.75;;;;;;;19.08;57.27;97737.02;1593762;87;26217;-76
2022/05/07 10:44:31;;;;;;;24.10;15.45;;;;;;;19.04;57.14;97732.06;1647496;87;25402;-79
2022/05/07 10:47:10;;;;;;;17.10;14.20;;;;;;;19.02;57.33;97730.11;1647510;87;27561;-77
2022/05/07 10:52:39;;;;;;;22.20;14.33;;;;;;;18.99;56.54;97733.89;1583108;90;26679;-78
2022/05/07 10:55:16;;;;;;;22.93;14.78;;;;;;;18.94;56.24;97733.86;1582719;90;25982;-78
2022/05/07 10:57:47;;;;;;;18.00;13.75;;;;;;;18.93;55.85;97734.40;1583357;90;25762;-77
2022/05/07 11:00:22;;;;;;;25.02;14.25;;;;;;;18.89;56.05;97734.62;1582824;90;27504;-76
2022/05/07 11:02:52;;;;;;;17.05;13.28;;;;;;;18.73;55.98;97727.31;1582191;90;25797;-77
2022/05/07 11:05:33;;;;;;;16.65;13.30;;;;;;;18.69;55.87;97724.28;1581829;90;25941;-79
2022/05/07 11:08:02;;;;;;;16.65;12.28;;;;;;;18.64;56.09;97723.38;1572213;90;26011;-78
2022/05/07 11:10:33;;;;;;;18.17;13.48;;;;;;;18.67;56.10;97731.08;1564226;90;25457;-78
2022/05/07 11:13:09;;;;;;;23.52;13.00;;;;;;;18.64;55.56;97729.67;1569849;90;28082;-76
2022/05/07 11:15:37;;;;;;;19.62;13.72;;;;;;;18.64;55.66;97730.22;1558473;91;26481;-78
2022/05/07 11:18:17;;;;;;;16.93;12.90;;;;;;;18.71;55.73;97726.77;1560015;91;25941;-77
2022/05/07 11:20:44;;;;;;;19.50;12.78;;;;;;;18.84;55.81;97728.25;1556094;91;27048;-77
2022/05/07 11:23:13;;;;;;;16.27;12.50;;;;;;;19.02;56.12;97728.75;1562656;91;25838;-77
2022/05/07 11:25:45;;;;;;;17.02;10.88;;;;;;;19.22;55.88;97725.92;1562610;91;26895;-79
2022/05/07 11:28:10;;;;;;;15.63;11.48;;;;;;;19.45;55.88;97722.85;1562619;91;25743;-77
2022/05/07 11:30:37;;;;;;;14.45;10.85;;;;;;;19.68;55.32;97721.16;1556363;91;25826;-77
2022/05/07 11:35:33;;;;;;;14.50;10.55;;;;;;;20.00;54.97;97718.40;1583757;90;26595;-77
2022/05/07 11:38:01;;;;;;;14.50;10.75;;;;;;;20.16;53.62;97722.06;1583907;90;27511;-77
2022/05/07 11:40:31;;;;;;;13.58;10.53;;;;;;;20.27;54.31;97723.77;1580606;90;25790;-77
2022/05/07 11:45:42;;;;;;;13.68;10.08;;;;;;;20.45;53.23;97720.59;1583772;90;26865;-79
2022/05/07 11:48:14;;;;;;;14.90;11.80;;;;;;;20.60;52.13;97721.77;1584081;90;25334;-77
2022/05/07 11:50:53;;;;;;;13.83;10.80;;;;;;;20.56;52.10;97720.09;1607232;88;27405;-77
2022/05/07 11:53:24;;;;;;;13.35;10.48;;;;;;;20.57;52.04;97725.03;1592086;90;25504;-77
2022/05/07 11:55:51;;;;;;;15.80;10.18;;;;;;;20.59;51.74;97718.73;1591840;90;25871;-77
2022/05/07 11:58:20;;;;;;;14.70;10.48;;;;;;;20.53;51.50;97723.94;1592386;90;26358;-77